Aviation Digital Data Service (ADDS)

Output produced by METARs form (1630 UTC 30 October 2020)
found at http://www.aviationweather.gov/metar/data/
 
KFTY 301553Z 34016G22KT 10SM SCT029 14/06 A3014 RMK AO2 SLP206 T01390061
KFTY 301544Z 36014G21KT 10SM SCT028 14/07 A3014 RMK AO2 T01440067
KFTY 301135Z 3012/3112 30011KT P6SM BKN020 
     FM301400 32012G22KT P6SM SCT035 
     FM301600 32012G20KT P6SM SKC 
     FM301900 34010G16KT P6SM SKC 
     FM302300 34008KT P6SM SKC 
     FM310400 03004KT P6SM SKC